Usk, Canada
Current Conditions -  °F | °C
As of 2:00 AM on Thursday 29 Jan 2015 (Local Time) from CYXT Reporting Station
Light Rain Light Rain  
Wind Chill: 34°   Ceiling: 2200
Heat Index: 34°   Visibility: 5mi
Dew Point: 34°   Wind: 2mph
Humidity: 100%   Direction: NA
Pressure: 30.28"   Gusts: NA
Location:  54.64°N, 128.41°W
Report Text: CYXT 291000Z VRB02KT 5SM -RA BR SCT004 BKN022 OVC043 01/01 A3028 RMK SF3SC2SC3 SLP266
Loading
Personal Weather Stations






























Interactive Weather Map New forecast layout! Learn more

10-Day Weather Forecast

Advertisements
Track Severe Weather on mobile